createdAt,value
2023-05-12T00:00:15.258Z,1.92
2023-05-12T00:02:45.923Z,2.13
2023-05-12T00:05:13.630Z,2.33
2023-05-12T00:07:41.212Z,1.77
2023-05-12T00:10:09.491Z,2.10
2023-05-12T00:12:37.329Z,1.73
2023-05-12T00:15:05.701Z,1.10
2023-05-12T00:17:33.528Z,2.88
2023-05-12T00:20:01.541Z,1.23
2023-05-12T00:22:29.250Z,1.52
2023-05-12T00:24:56.914Z,2.20
2023-05-12T00:27:24.543Z,1.45
2023-05-12T00:29:52.175Z,2.17
2023-05-12T00:32:19.754Z,1.48
2023-05-12T00:34:47.358Z,1.35
2023-05-12T00:37:14.961Z,1.65
2023-05-12T00:39:42.778Z,1.60
2023-05-12T00:42:12.035Z,1.33
2023-05-12T00:44:40.165Z,1.02
2023-05-12T00:47:08.790Z,1.65
2023-05-12T00:49:36.932Z,2.28
2023-05-12T00:52:05.050Z,5.20
2023-05-12T00:54:32.826Z,1.30
2023-05-12T00:57:00.790Z,1.35
2023-05-12T00:59:29.755Z,2.70
2023-05-12T01:01:57.820Z,2.60
2023-05-12T01:04:26.575Z,2.80
2023-05-12T01:07:00.024Z,2.38
2023-05-12T01:09:27.799Z,3.83
2023-05-12T01:11:56.892Z,2.15
2023-05-12T01:14:24.499Z,1.17
2023-05-12T01:16:56.271Z,3.13
2023-05-12T01:19:49.840Z,2.40
2023-05-12T01:22:18.380Z,4.32
2023-05-12T01:24:54.872Z,1.60
2023-05-12T01:27:25.898Z,3.63
2023-05-12T01:29:57.946Z,2.58
2023-05-12T01:32:26.591Z,2.45
2023-05-12T01:34:54.450Z,2.25
2023-05-12T01:37:29.297Z,2.67
2023-05-12T01:39:57.740Z,1.73
2023-05-12T01:42:25.441Z,1.73
2023-05-12T01:44:53.169Z,2.20
2023-05-12T01:47:21.755Z,1.98
2023-05-12T01:49:59.167Z,2.05
2023-05-12T01:52:28.250Z,1.30
2023-05-12T01:54:55.924Z,1.67
2023-05-12T01:57:24.221Z,2.85
2023-05-12T01:59:55.692Z,3.50
2023-05-12T02:02:23.974Z,1.40
2023-05-12T02:04:51.797Z,2.42
2023-05-12T02:07:19.366Z,3.83
2023-05-12T02:09:47.352Z,2.15
2023-05-12T02:12:15.363Z,1.23
2023-05-12T02:14:43.324Z,1.98
2023-05-12T02:17:11.064Z,2.17
2023-05-12T02:19:38.791Z,2.97
2023-05-12T02:22:06.786Z,7.13
2023-05-12T02:24:34.637Z,7.82
2023-05-12T02:27:02.505Z,8.27
2023-05-12T02:29:30.881Z,2.83
2023-05-12T02:31:59.863Z,2.90
2023-05-12T02:34:27.564Z,3.85
2023-05-12T02:36:57.260Z,3.88
2023-05-12T02:39:24.972Z,3.15
2023-05-12T02:41:52.621Z,1.98
2023-05-12T02:44:22.495Z,2.78
2023-05-12T02:46:50.934Z,1.92
2023-05-12T02:49:19.102Z,2.88
2023-05-12T02:51:48.651Z,2.03
2023-05-12T02:54:16.518Z,2.10
2023-05-12T02:56:44.165Z,2.92
2023-05-12T02:59:12.265Z,3.38
2023-05-12T03:01:39.992Z,2.95
2023-05-12T03:04:07.884Z,3.10
2023-05-12T03:06:35.568Z,1.50
2023-05-12T03:09:03.867Z,2.08
2023-05-12T03:11:31.887Z,1.95
2023-05-12T03:13:59.488Z,2.80
2023-05-12T03:16:27.394Z,4.10
2023-05-12T03:18:55.387Z,3.55
2023-05-12T03:21:23.097Z,3.70
2023-05-12T03:23:50.698Z,3.10
2023-05-12T03:26:18.500Z,4.22
2023-05-12T03:28:46.538Z,3.55
2023-05-12T03:31:14.220Z,2.10
2023-05-12T03:33:41.951Z,2.00
2023-05-12T03:36:10.438Z,3.15
2023-05-12T03:38:38.285Z,2.75
2023-05-12T03:41:07.564Z,3.47
2023-05-12T03:43:36.806Z,2.45
2023-05-12T03:46:04.577Z,2.55
2023-05-12T03:48:32.324Z,5.03
2023-05-12T03:50:59.934Z,6.55
2023-05-12T03:53:28.792Z,3.17
2023-05-12T03:55:58.030Z,3.10
2023-05-12T03:58:27.123Z,3.20
2023-05-12T04:00:57.119Z,3.47
2023-05-12T04:03:24.825Z,2.33
2023-05-12T04:05:58.314Z,4.53
2023-05-12T04:08:26.698Z,2.80
2023-05-12T04:10:58.943Z,4.18
2023-05-12T04:13:27.803Z,2.88
2023-05-12T04:15:59.661Z,3.10
2023-05-12T04:18:28.246Z,2.72
2023-05-12T04:20:56.534Z,3.88
2023-05-12T04:23:24.270Z,2.05
2023-05-12T04:25:51.998Z,3.15
2023-05-12T04:28:19.587Z,4.63
2023-05-12T04:30:48.010Z,5.15
2023-05-12T04:33:15.650Z,5.45
2023-05-12T04:35:44.223Z,3.03
2023-05-12T04:38:13.883Z,2.28
2023-05-12T04:40:42.420Z,3.97
2023-05-12T04:43:59.911Z,2.40
2023-05-12T04:46:00.277Z,2.67
2023-05-12T04:48:29.436Z,5.55
2023-05-12T04:51:01.224Z,4.68
2023-05-12T04:53:29.367Z,6.90
2023-05-12T04:55:57.254Z,3.20
2023-05-12T04:58:28.049Z,3.55
2023-05-12T05:00:56.340Z,3.80
2023-05-12T05:03:24.190Z,3.30
2023-05-12T05:05:52.502Z,3.67
2023-05-12T05:08:20.278Z,7.43
2023-05-12T05:10:48.221Z,5.03
2023-05-12T05:13:16.640Z,4.75
2023-05-12T05:15:54.802Z,4.93
2023-05-12T05:18:24.786Z,2.15
2023-05-12T05:20:58.320Z,2.63
2023-05-12T05:23:26.950Z,3.38
2023-05-12T05:25:55.702Z,2.17
2023-05-12T05:28:23.772Z,2.30
2023-05-12T05:30:51.374Z,4.50
2023-05-12T05:33:19.161Z,3.53
2023-05-12T05:35:48.203Z,3.17
2023-05-12T05:38:16.481Z,4.25
2023-05-12T05:40:53.037Z,2.63
2023-05-12T05:43:22.812Z,3.55
2023-05-12T05:45:51.566Z,5.50
2023-05-12T05:48:21.910Z,2.85
2023-05-12T05:50:52.518Z,3.30
2023-05-12T05:53:22.654Z,4.25
2023-05-12T05:55:50.678Z,4.20
2023-05-12T05:58:18.715Z,4.60
2023-05-12T06:00:47.307Z,5.07
2023-05-12T06:03:15.119Z,4.10
2023-05-12T06:05:44.672Z,4.60
2023-05-12T06:08:13.523Z,6.25
2023-05-12T06:10:41.699Z,6.60
2023-05-12T06:13:09.334Z,5.22
2023-05-12T06:15:36.979Z,7.38
2023-05-12T06:18:04.837Z,12.18
2023-05-12T06:20:32.939Z,8.95
2023-05-12T06:23:00.581Z,47.05
2023-05-12T06:25:28.318Z,8.95
2023-05-12T06:27:56.341Z,8.32
2023-05-12T06:30:24.572Z,4.95
2023-05-12T06:32:56.267Z,5.15
2023-05-12T06:35:23.984Z,10.43
2023-05-12T06:37:51.681Z,78.60
2023-05-12T06:40:19.383Z,55.00
2023-05-12T06:42:47.776Z,72.30
2023-05-12T06:45:21.353Z,39.92
2023-05-12T06:47:50.108Z,34.60
2023-05-12T06:50:19.301Z,16.02
2023-05-12T06:52:50.966Z,7.78
2023-05-12T06:55:20.772Z,6.28
2023-05-12T06:57:48.866Z,10.27
2023-05-12T07:00:16.763Z,5.88
2023-05-12T07:02:44.556Z,4.07
2023-05-12T07:05:13.046Z,3.08
2023-05-12T07:07:41.619Z,3.05
2023-05-12T07:10:09.602Z,3.85
2023-05-12T07:12:38.344Z,3.53
2023-05-12T07:15:06.735Z,3.45
2023-05-12T07:17:34.469Z,3.60
2023-05-12T07:20:02.488Z,8.15
2023-05-12T07:22:32.582Z,4.43
2023-05-12T07:25:00.422Z,8.15
2023-05-12T07:27:28.121Z,12.63
2023-05-12T07:29:55.853Z,4.75
2023-05-12T07:32:23.515Z,2.80
2023-05-12T07:34:51.163Z,2.80
2023-05-12T07:37:18.719Z,3.22
2023-05-12T07:39:46.829Z,3.20
2023-05-12T07:42:14.492Z,4.00
2023-05-12T07:44:42.221Z,4.47
2023-05-12T07:47:10.019Z,5.68
2023-05-12T07:49:37.861Z,3.45
2023-05-12T07:52:05.772Z,3.67
2023-05-12T07:54:33.463Z,4.10
2023-05-12T07:57:01.015Z,4.43
2023-05-12T07:59:28.841Z,3.08
2023-05-12T08:01:56.511Z,3.30
2023-05-12T08:04:24.517Z,5.25
2023-05-12T08:06:52.296Z,4.07
2023-05-12T08:09:19.969Z,4.10
2023-05-12T08:11:50.027Z,3.92
2023-05-12T08:14:18.940Z,9.18
2023-05-12T08:16:47.222Z,4.72
2023-05-12T08:19:15.053Z,3.33
2023-05-12T08:21:42.839Z,3.28
2023-05-12T08:24:10.419Z,3.97
2023-05-12T08:26:38.121Z,4.40
2023-05-12T08:29:07.077Z,5.43
2023-05-12T08:31:34.975Z,3.08
2023-05-12T08:34:10.430Z,4.65
2023-05-12T08:36:39.976Z,3.63
2023-05-12T08:39:10.282Z,2.92
2023-05-12T08:41:48.060Z,2.75
2023-05-12T08:44:16.135Z,4.65
2023-05-12T08:46:44.308Z,9.27
2023-05-12T08:49:17.051Z,15.38
2023-05-12T08:54:27.230Z,10.27
2023-05-12T08:59:26.492Z,16.35
2023-05-12T09:01:55.302Z,20.73
2023-05-12T09:04:23.249Z,11.80
2023-05-12T09:06:54.350Z,47.08
2023-05-12T09:11:56.420Z,46.78
2023-05-12T09:14:26.019Z,37.85
2023-05-12T09:17:00.248Z,32.38
2023-05-12T09:19:28.656Z,16.15
2023-05-12T09:21:56.888Z,24.42
2023-05-12T09:24:35.666Z,14.07
2023-05-12T09:27:04.634Z,20.67
2023-05-12T09:29:39.512Z,10.15
2023-05-12T09:32:10.012Z,7.15
2023-05-12T09:34:41.192Z,16.35
2023-05-12T09:37:10.132Z,20.00
2023-05-12T09:39:37.827Z,23.80
2023-05-12T09:42:12.400Z,17.40
2023-05-12T09:44:41.419Z,7.88
2023-05-12T09:47:10.707Z,10.30
2023-05-12T09:49:38.525Z,6.18
2023-05-12T09:52:06.328Z,27.40
2023-05-12T09:54:34.662Z,11.20
2023-05-12T09:57:07.660Z,10.38
2023-05-12T09:59:36.525Z,19.15
2023-05-12T10:02:06.797Z,7.53
2023-05-12T10:04:55.645Z,20.35
2023-05-12T10:07:27.686Z,28.20
2023-05-12T10:09:59.473Z,31.10
2023-05-12T10:12:27.276Z,23.48
2023-05-12T10:14:55.566Z,10.95
2023-05-12T10:17:24.591Z,18.55
2023-05-12T10:19:53.189Z,17.35
2023-05-12T10:22:22.677Z,8.15
2023-05-12T10:24:51.743Z,6.35
2023-05-12T10:27:20.200Z,7.30
2023-05-12T10:29:49.079Z,11.27
2023-05-12T10:32:17.756Z,5.93
2023-05-12T10:34:45.485Z,5.40
2023-05-12T10:37:13.565Z,7.82
2023-05-12T10:39:49.314Z,6.20
2023-05-12T10:42:26.135Z,9.73
2023-05-12T10:44:55.698Z,8.55
2023-05-12T10:47:36.354Z,6.75
2023-05-12T10:50:04.467Z,5.43
2023-05-12T10:52:32.212Z,6.53
2023-05-12T10:55:01.929Z,4.45
2023-05-12T10:57:33.450Z,10.80
2023-05-12T11:00:03.645Z,25.90
2023-05-12T11:02:35.926Z,49.38
2023-05-12T11:05:10.778Z,10.35
2023-05-12T11:07:39.767Z,49.65
2023-05-12T11:10:08.664Z,58.63
2023-05-12T11:12:37.630Z,57.65
2023-05-12T11:15:07.149Z,72.22
2023-05-12T11:17:39.555Z,164.48
2023-05-12T11:20:09.973Z,187.63
2023-05-12T11:22:40.820Z,97.72
2023-05-12T11:25:12.759Z,37.97
2023-05-12T11:27:50.772Z,33.10
2023-05-12T11:30:19.910Z,26.52
2023-05-12T11:33:06.604Z,29.55
2023-05-12T11:35:34.500Z,44.33
2023-05-12T11:38:03.091Z,21.17
2023-05-12T11:40:30.719Z,25.75
2023-05-12T11:43:00.118Z,21.05
2023-05-12T11:45:30.172Z,10.65
2023-05-12T11:48:12.287Z,10.18
2023-05-12T11:50:41.991Z,9.40
2023-05-12T11:53:17.590Z,6.07
2023-05-12T11:55:49.694Z,7.53
2023-05-12T11:58:22.126Z,8.65
2023-05-12T12:00:49.861Z,6.35
2023-05-12T12:03:17.783Z,6.28
2023-05-12T12:06:01.395Z,12.00
2023-05-12T12:08:29.704Z,6.22
2023-05-12T12:10:57.339Z,5.55
2023-05-12T12:13:26.427Z,10.82
2023-05-12T12:15:54.311Z,9.25
2023-05-12T12:18:25.120Z,4.55
2023-05-12T12:20:52.800Z,8.40
2023-05-12T12:23:20.458Z,9.18
2023-05-12T12:25:48.067Z,16.58
2023-05-12T12:28:15.681Z,8.60
2023-05-12T12:30:43.333Z,6.47
2023-05-12T12:33:11.269Z,6.80
2023-05-12T12:35:38.969Z,9.02
2023-05-12T12:38:06.632Z,6.18
2023-05-12T12:40:34.786Z,7.13
2023-05-12T12:43:02.360Z,10.00
2023-05-12T12:45:30.032Z,65.35
2023-05-12T12:47:57.669Z,29.40
2023-05-12T12:50:27.181Z,25.75
2023-05-12T12:52:55.013Z,22.98
2023-05-12T12:55:23.252Z,12.70
2023-05-12T12:57:51.167Z,17.23
2023-05-12T13:00:19.604Z,61.80
2023-05-12T13:02:47.384Z,80.25
2023-05-12T13:05:16.444Z,33.65
2023-05-12T13:07:44.371Z,17.77
2023-05-12T13:10:12.386Z,19.38
2023-05-12T13:12:39.979Z,65.97
2023-05-12T13:15:08.462Z,158.15
2023-05-12T13:17:36.390Z,99.78
2023-05-12T13:20:04.685Z,57.25
2023-05-12T13:22:32.365Z,44.33
2023-05-12T13:25:00.094Z,51.72
2023-05-12T13:27:28.003Z,84.07
2023-05-12T13:29:55.630Z,48.00
2023-05-12T13:32:23.714Z,52.85
2023-05-12T13:34:51.436Z,19.00
2023-05-12T13:37:19.173Z,59.67
2023-05-12T13:39:46.768Z,58.13
2023-05-12T13:42:14.334Z,41.95
2023-05-12T13:44:41.922Z,35.47
2023-05-12T13:47:09.745Z,15.23
2023-05-12T13:49:37.420Z,8.88
2023-05-12T13:52:05.335Z,12.07
2023-05-12T13:54:34.128Z,11.07
2023-05-12T13:57:06.293Z,8.40
2023-05-12T13:59:33.891Z,13.18
2023-05-12T14:02:02.103Z,11.13
2023-05-12T14:04:29.889Z,7.65
2023-05-12T14:06:58.001Z,8.50
2023-05-12T14:09:26.261Z,10.43
2023-05-12T14:11:54.672Z,9.05
2023-05-12T14:14:22.219Z,8.57
2023-05-12T14:16:49.936Z,4.28
2023-05-12T14:19:17.950Z,4.32
2023-05-12T14:21:45.719Z,12.88
2023-05-12T14:24:13.525Z,7.72
2023-05-12T14:26:41.235Z,11.20
2023-05-12T14:29:09.058Z,12.50
2023-05-12T14:31:36.645Z,4.45
2023-05-12T14:34:04.760Z,4.95
2023-05-12T14:36:32.485Z,4.97
2023-05-12T14:39:00.248Z,5.60
2023-05-12T14:41:27.856Z,5.10
2023-05-12T14:43:55.427Z,5.20
2023-05-12T14:46:25.232Z,4.70
2023-05-12T14:48:52.921Z,4.20
2023-05-12T14:51:20.528Z,4.57
2023-05-12T14:53:48.714Z,3.90
2023-05-12T14:56:16.375Z,5.40
2023-05-12T14:58:44.058Z,7.57
2023-05-12T15:01:12.560Z,7.20
2023-05-12T15:03:40.337Z,11.20
2023-05-12T15:06:08.502Z,9.82
2023-05-12T15:08:36.437Z,6.22
2023-05-12T15:11:04.595Z,8.48
2023-05-12T15:13:32.151Z,7.50
2023-05-12T15:15:59.894Z,7.65
2023-05-12T15:18:27.618Z,6.90
2023-05-12T15:20:55.397Z,7.97
2023-05-12T15:23:23.123Z,7.30
2023-05-12T15:25:50.819Z,7.82
2023-05-12T15:28:18.493Z,7.20
2023-05-12T15:30:55.209Z,8.63
2023-05-12T15:33:23.012Z,5.30
2023-05-12T15:35:51.290Z,5.43
2023-05-12T15:38:19.287Z,7.72
2023-05-12T15:40:47.375Z,4.53
2023-05-12T15:43:15.309Z,4.03
2023-05-12T15:45:42.976Z,6.90
2023-05-12T15:48:10.880Z,4.25
2023-05-12T15:50:38.839Z,13.60
2023-05-12T15:53:07.105Z,10.13
2023-05-12T15:55:35.239Z,11.90
2023-05-12T15:58:04.253Z,6.05
2023-05-12T16:00:32.073Z,5.63
2023-05-12T16:02:59.893Z,6.53
2023-05-12T16:05:27.908Z,7.28
2023-05-12T16:07:55.574Z,8.15
2023-05-12T16:10:23.150Z,9.63
2023-05-12T16:12:51.043Z,7.25
2023-05-12T16:15:19.900Z,9.15
2023-05-12T16:17:47.747Z,8.35
2023-05-12T16:20:15.601Z,7.32
2023-05-12T16:22:43.281Z,8.32
2023-05-12T16:25:11.495Z,8.98
2023-05-12T16:27:39.164Z,7.95
2023-05-12T16:30:07.903Z,4.28
2023-05-12T16:32:35.560Z,3.85
2023-05-12T16:35:03.392Z,6.13
2023-05-12T16:37:31.122Z,5.20
2023-05-12T16:39:58.939Z,6.45
2023-05-12T16:42:26.658Z,9.80
2023-05-12T16:44:57.996Z,7.88
2023-05-12T16:47:25.746Z,10.95
2023-05-12T16:49:53.688Z,20.02
2023-05-12T16:52:21.717Z,31.73
2023-05-12T16:54:49.336Z,24.00
2023-05-12T16:57:17.006Z,17.27
2023-05-12T16:59:44.938Z,10.55
2023-05-12T17:02:12.732Z,10.90
2023-05-12T17:04:40.581Z,10.35
2023-05-12T17:07:08.383Z,8.13
2023-05-12T17:09:36.153Z,9.43
2023-05-12T17:12:04.764Z,8.90
2023-05-12T17:14:34.700Z,10.35
2023-05-12T17:17:02.562Z,8.55
2023-05-12T17:19:30.581Z,7.97
2023-05-12T17:21:58.274Z,8.35
2023-05-12T17:24:26.850Z,9.88
2023-05-12T17:26:55.060Z,7.80
2023-05-12T17:29:22.989Z,13.02
2023-05-12T17:31:50.660Z,13.77
2023-05-12T17:34:18.420Z,6.22
2023-05-12T17:36:46.394Z,6.60
2023-05-12T17:39:16.021Z,5.75
2023-05-12T17:41:44.548Z,5.28
2023-05-12T17:44:12.277Z,10.65
2023-05-12T17:46:39.960Z,6.20
2023-05-12T17:49:07.810Z,7.03
2023-05-12T17:51:35.989Z,7.22
2023-05-12T17:54:04.135Z,3.13
2023-05-12T17:56:31.747Z,5.13
2023-05-12T17:58:59.434Z,3.60
2023-05-12T18:01:27.941Z,3.55
2023-05-12T18:03:55.568Z,3.63
2023-05-12T18:06:24.364Z,3.38
2023-05-12T18:08:52.455Z,4.45
2023-05-12T18:11:20.087Z,5.35
2023-05-12T18:13:48.137Z,10.30
2023-05-12T18:16:28.004Z,9.35
2023-05-12T18:18:57.114Z,7.55
2023-05-12T18:21:25.166Z,6.63
2023-05-12T18:23:52.814Z,10.50
2023-05-12T18:26:21.407Z,6.75
2023-05-12T18:28:49.060Z,4.32
2023-05-12T18:31:19.606Z,4.88
2023-05-12T18:33:48.420Z,5.38
2023-05-12T18:36:17.033Z,6.70
2023-05-12T18:38:45.106Z,5.53
2023-05-12T18:41:13.097Z,8.60
2023-05-12T18:43:43.122Z,11.27
2023-05-12T18:46:11.812Z,10.60
2023-05-12T18:48:39.863Z,6.95
2023-05-12T18:51:09.587Z,7.43
2023-05-12T18:53:37.271Z,7.93
2023-05-12T18:56:05.013Z,9.25
2023-05-12T18:58:32.766Z,8.15
2023-05-12T19:01:00.600Z,8.88
2023-05-12T19:03:28.343Z,6.35
2023-05-12T19:05:56.029Z,5.65
2023-05-12T19:08:23.812Z,3.55
2023-05-12T19:10:51.933Z,4.75
2023-05-12T19:13:19.594Z,3.72
2023-05-12T19:15:47.508Z,4.22
2023-05-12T19:18:15.685Z,5.00
2023-05-12T19:20:43.679Z,3.60
2023-05-12T19:23:11.728Z,5.03
2023-05-12T19:25:39.903Z,4.03
2023-05-12T19:28:10.437Z,5.72
2023-05-12T19:30:38.377Z,6.78
2023-05-12T19:33:06.481Z,7.43
2023-05-12T19:35:34.970Z,11.93
2023-05-12T19:38:02.640Z,5.43
2023-05-12T19:40:32.668Z,9.13
2023-05-12T19:43:00.388Z,5.60
2023-05-12T19:45:29.407Z,4.85
2023-05-12T19:47:57.378Z,6.65
2023-05-12T19:50:25.241Z,5.50
2023-05-12T19:52:52.915Z,5.45
2023-05-12T19:55:21.284Z,5.68
2023-05-12T19:57:49.262Z,6.32
2023-05-12T20:00:17.335Z,7.53
2023-05-12T20:02:46.155Z,6.35
2023-05-12T20:05:13.882Z,7.03
2023-05-12T20:07:41.602Z,5.20
2023-05-12T20:10:09.652Z,4.80
2023-05-12T20:12:38.126Z,5.40
2023-05-12T20:15:06.901Z,5.70
2023-05-12T20:17:34.686Z,5.40
2023-05-12T20:20:04.231Z,7.53
2023-05-12T20:22:32.680Z,4.82
2023-05-12T20:25:04.438Z,5.97
2023-05-12T20:27:33.697Z,6.40
2023-05-12T20:30:01.293Z,7.78
2023-05-12T20:32:29.435Z,4.53
2023-05-12T20:34:57.203Z,6.03
2023-05-12T20:37:24.758Z,5.03
2023-05-12T20:39:54.068Z,6.88
2023-05-12T20:42:21.895Z,7.50
2023-05-12T20:44:49.501Z,5.80
2023-05-12T20:47:17.125Z,5.53
2023-05-12T20:49:45.231Z,6.35
2023-05-12T20:52:13.093Z,5.22
2023-05-12T20:54:40.856Z,6.80
2023-05-12T20:57:10.660Z,6.07
2023-05-12T20:59:38.279Z,4.75
2023-05-12T21:02:06.115Z,5.85
2023-05-12T21:04:33.803Z,4.00
2023-05-12T21:07:01.525Z,5.40
2023-05-12T21:09:30.708Z,5.70
2023-05-12T21:11:59.149Z,6.68
2023-05-12T21:14:26.966Z,5.97
2023-05-12T21:16:54.699Z,4.57
2023-05-12T21:19:22.440Z,3.97
2023-05-12T21:21:50.388Z,5.65
2023-05-12T21:24:18.181Z,5.95
2023-05-12T21:26:46.390Z,6.07
2023-05-12T21:29:14.202Z,4.72
2023-05-12T21:31:41.994Z,5.93
2023-05-12T21:34:09.696Z,5.35
2023-05-12T21:36:37.350Z,6.97
2023-05-12T21:39:05.016Z,4.90
2023-05-12T21:41:32.569Z,6.57
2023-05-12T21:44:00.487Z,4.75
2023-05-12T21:46:28.125Z,5.38
2023-05-12T21:48:55.855Z,5.82
2023-05-12T21:51:23.700Z,6.53
2023-05-12T21:53:51.601Z,7.22
2023-05-12T21:56:19.251Z,6.50
2023-05-12T21:58:46.836Z,4.82
2023-05-12T22:01:14.930Z,7.10
2023-05-12T22:03:42.794Z,7.40
2023-05-12T22:06:11.908Z,8.07
2023-05-12T22:08:39.460Z,7.45
2023-05-12T22:11:07.136Z,7.13
2023-05-12T22:13:35.037Z,6.38
2023-05-12T22:16:03.066Z,7.13
2023-05-12T22:18:30.926Z,7.68
2023-05-12T22:20:58.954Z,6.15
2023-05-12T22:23:26.830Z,6.30
2023-05-12T22:25:54.763Z,6.45
2023-05-12T22:28:22.426Z,6.10
2023-05-12T22:30:50.464Z,5.78
2023-05-12T22:33:18.693Z,5.05
2023-05-12T22:35:46.362Z,6.13
2023-05-12T22:38:14.036Z,4.65
2023-05-12T22:40:42.964Z,6.05
2023-05-12T22:43:12.879Z,5.80
2023-05-12T22:45:40.709Z,5.57
2023-05-12T22:48:08.496Z,4.72
2023-05-12T22:50:36.196Z,6.18
2023-05-12T22:53:03.819Z,6.78
2023-05-12T22:55:31.679Z,5.38
2023-05-12T22:58:00.174Z,7.50
2023-05-12T23:00:27.905Z,4.22
2023-05-12T23:02:55.714Z,7.88
2023-05-12T23:05:23.484Z,4.57
2023-05-12T23:07:51.605Z,2.95
2023-05-12T23:10:19.663Z,4.10
2023-05-12T23:12:47.848Z,4.75
2023-05-12T23:15:15.385Z,5.10
2023-05-12T23:17:43.040Z,8.45
2023-05-12T23:20:11.206Z,4.90
2023-05-12T23:22:38.916Z,4.43
2023-05-12T23:25:07.292Z,3.95
2023-05-12T23:27:36.384Z,3.10
2023-05-12T23:30:04.375Z,4.93
2023-05-12T23:32:32.329Z,5.30
2023-05-12T23:35:00.135Z,3.97
2023-05-12T23:37:27.804Z,3.55
2023-05-12T23:39:55.580Z,3.92
2023-05-12T23:42:23.208Z,3.38
2023-05-12T23:44:50.783Z,5.15
2023-05-12T23:47:18.392Z,5.82
2023-05-12T23:49:46.132Z,3.53
2023-05-12T23:52:13.795Z,3.35
2023-05-12T23:54:41.454Z,4.05
2023-05-12T23:57:09.086Z,3.95
2023-05-12T23:59:36.651Z,3.30
